This is the latest recevied weather packets stored in our database for station/object IN3MWE-10. If no packets are shown the sender has not sent any weather packets the latest 10 day(s).
| Time | Temp. | Humidity | Pressure | Rain* | Wind** | Luminosity | Snow |
|---|---|---|---|---|---|---|---|
| 1777545318 | 25° C | 28% | 986 hPa | - | - | - | - |
| 1777544418 | 27.78° C | 24% | 986.2 hPa | - | - | - | - |
| 1777543518 | 26.67° C | 25% | 986.3 hPa | - | - | - | - |
| 1777542618 | 24.44° C | 28% | 986.6 hPa | - | - | - | - |
| 1777541718 | 22.78° C | 31% | 986.7 hPa | - | - | - | - |
| 1777540818 | 23.33° C | 30% | 987 hPa | - | - | - | - |
| 1777539918 | 21.11° C | 35% | 987.1 hPa | - | - | - | - |
| 1777539017 | 21.11° C | 33% | 987.2 hPa | - | - | - | - |
| 1777538117 | 19.44° C | 38% | 987.4 hPa | - | - | - | - |
| 1777537217 | 20.56° C | 36% | 987.3 hPa | - | - | - | - |
| 1777536317 | 20.56° C | 36% | 987.3 hPa | - | - | - | - |
| 1777535417 | 15° C | 56% | 987.6 hPa | - | - | - | - |
| 1777534517 | 13.89° C | 59% | 987.7 hPa | - | - | - | - |
| 1777533617 | 12.78° C | 62% | 987.9 hPa | - | - | - | - |
| 1777532716 | 12.22° C | 62% | 987.9 hPa | - | - | - | - |
| 1777531816 | 12.78° C | 58% | 988 hPa | - | - | - | - |
| 1777530916 | 11.67° C | 58% | 988.2 hPa | - | - | - | - |
| 1777530016 | 11.11° C | 59% | 988.2 hPa | - | - | - | - |
| 1777529116 | 10.56° C | 60% | 988.1 hPa | - | - | - | - |
| 1777528216 | 10.56° C | 61% | 988.1 hPa | - | - | - | - |
| 1777527316 | 10° C | 63% | 988 hPa | - | - | - | - |
| 1777526416 | 10° C | 63% | 987.9 hPa | - | - | - | - |
| 1777525515 | 10° C | 63% | 987.7 hPa | - | - | - | - |
| 1777524615 | 10° C | 64% | 987.6 hPa | - | - | - | - |
| 1777523715 | 10° C | 66% | 987.5 hPa | - | - | - | - |
* Rain since midnight (hover to see other rain measurements)
** Current wind speed in m/s (hover to see current wind gust speed)